sensor_id;sensor_type;location;lat;lon;timestamp;temperature;humidity
8928;DHT22;4499;48.304;11.902;2023-05-24T00:01:21;12.70;99.90
8928;DHT22;4499;48.304;11.902;2023-05-24T00:03:52;12.70;99.90
8928;DHT22;4499;48.304;11.902;2023-05-24T00:06:25;12.60;99.90
8928;DHT22;4499;48.304;11.902;2023-05-24T00:08:53;12.60;99.90
8928;DHT22;4499;48.304;11.902;2023-05-24T00:11:21;12.70;99.90
8928;DHT22;4499;48.304;11.902;2023-05-24T00:13:49;12.70;99.90
8928;DHT22;4499;48.304;11.902;2023-05-24T00:16:17;12.70;99.90
8928;DHT22;4499;48.304;11.902;2023-05-24T00:18:47;12.70;99.90
8928;DHT22;4499;48.304;11.902;2023-05-24T00:21:15;12.70;99.90
8928;DHT22;4499;48.304;11.902;2023-05-24T00:23:43;12.70;99.90
8928;DHT22;4499;48.304;11.902;2023-05-24T00:26:11;12.70;99.90
8928;DHT22;4499;48.304;11.902;2023-05-24T00:28:39;12.70;99.90
8928;DHT22;4499;48.304;11.902;2023-05-24T00:31:07;12.70;99.90
8928;DHT22;4499;48.304;11.902;2023-05-24T00:33:36;12.70;99.90
8928;DHT22;4499;48.304;11.902;2023-05-24T00:36:05;12.70;99.90
8928;DHT22;4499;48.304;11.902;2023-05-24T00:38:33;12.70;99.90
8928;DHT22;4499;48.304;11.902;2023-05-24T00:41:01;12.70;99.90
8928;DHT22;4499;48.304;11.902;2023-05-24T00:43:30;12.70;99.90
8928;DHT22;4499;48.304;11.902;2023-05-24T00:46:17;12.70;99.90
8928;DHT22;4499;48.304;11.902;2023-05-24T00:48:46;12.70;99.90
8928;DHT22;4499;48.304;11.902;2023-05-24T00:51:16;12.70;99.90
8928;DHT22;4499;48.304;11.902;2023-05-24T00:53:46;12.70;99.90
8928;DHT22;4499;48.304;11.902;2023-05-24T00:56:15;12.70;99.90
8928;DHT22;4499;48.304;11.902;2023-05-24T00:58:44;12.70;99.90
8928;DHT22;4499;48.304;11.902;2023-05-24T01:01:12;12.70;99.90
8928;DHT22;4499;48.304;11.902;2023-05-24T01:03:40;12.70;99.90
8928;DHT22;4499;48.304;11.902;2023-05-24T01:06:09;12.70;99.90
8928;DHT22;4499;48.304;11.902;2023-05-24T01:09:03;12.70;99.90
8928;DHT22;4499;48.304;11.902;2023-05-24T01:11:41;12.60;99.90
8928;DHT22;4499;48.304;11.902;2023-05-24T01:14:16;12.60;99.90
8928;DHT22;4499;48.304;11.902;2023-05-24T01:16:52;12.60;99.90
8928;DHT22;4499;48.304;11.902;2023-05-24T01:19:47;12.60;99.90
8928;DHT22;4499;48.304;11.902;2023-05-24T01:22:27;12.60;99.90
8928;DHT22;4499;48.304;11.902;2023-05-24T01:25:02;12.60;99.90
8928;DHT22;4499;48.304;11.902;2023-05-24T01:27:33;12.60;99.90
8928;DHT22;4499;48.304;11.902;2023-05-24T01:30:03;12.60;99.90
8928;DHT22;4499;48.304;11.902;2023-05-24T01:32:32;12.60;99.90
8928;DHT22;4499;48.304;11.902;2023-05-24T01:35:00;12.60;99.90
8928;DHT22;4499;48.304;11.902;2023-05-24T01:37:28;12.60;99.90
8928;DHT22;4499;48.304;11.902;2023-05-24T01:39:58;12.60;99.90
8928;DHT22;4499;48.304;11.902;2023-05-24T01:42:34;12.50;99.90
8928;DHT22;4499;48.304;11.902;2023-05-24T01:45:07;12.60;99.90
8928;DHT22;4499;48.304;11.902;2023-05-24T01:47:48;12.50;99.90
8928;DHT22;4499;48.304;11.902;2023-05-24T01:50:24;12.50;99.90
8928;DHT22;4499;48.304;11.902;2023-05-24T01:52:54;12.50;99.90
8928;DHT22;4499;48.304;11.902;2023-05-24T01:55:26;12.50;99.90
8928;DHT22;4499;48.304;11.902;2023-05-24T01:57:59;12.40;99.90
8928;DHT22;4499;48.304;11.902;2023-05-24T02:00:30;12.40;99.90
8928;DHT22;4499;48.304;11.902;2023-05-24T02:03:00;12.50;99.90
8928;DHT22;4499;48.304;11.902;2023-05-24T02:05:31;12.50;99.90
8928;DHT22;4499;48.304;11.902;2023-05-24T02:07:59;12.50;99.90
8928;DHT22;4499;48.304;11.902;2023-05-24T02:10:27;12.50;99.90
8928;DHT22;4499;48.304;11.902;2023-05-24T02:12:57;12.40;99.90
8928;DHT22;4499;48.304;11.902;2023-05-24T02:15:25;12.40;99.90
8928;DHT22;4499;48.304;11.902;2023-05-24T02:17:56;12.40;99.90
8928;DHT22;4499;48.304;11.902;2023-05-24T02:20:24;12.40;99.90
8928;DHT22;4499;48.304;11.902;2023-05-24T02:22:54;12.40;99.90
8928;DHT22;4499;48.304;11.902;2023-05-24T02:25:22;12.40;99.90
8928;DHT22;4499;48.304;11.902;2023-05-24T02:27:50;12.40;99.90
8928;DHT22;4499;48.304;11.902;2023-05-24T02:30:19;12.40;99.90
8928;DHT22;4499;48.304;11.902;2023-05-24T02:32:48;12.40;99.90
8928;DHT22;4499;48.304;11.902;2023-05-24T02:35:16;12.40;99.90
8928;DHT22;4499;48.304;11.902;2023-05-24T02:37:44;12.40;99.90
8928;DHT22;4499;48.304;11.902;2023-05-24T02:40:12;12.30;99.90
8928;DHT22;4499;48.304;11.902;2023-05-24T02:42:41;12.40;99.90
8928;DHT22;4499;48.304;11.902;2023-05-24T02:45:09;12.40;99.90
8928;DHT22;4499;48.304;11.902;2023-05-24T02:47:39;12.40;99.90
8928;DHT22;4499;48.304;11.902;2023-05-24T02:50:08;12.40;99.90
8928;DHT22;4499;48.304;11.902;2023-05-24T02:52:36;12.40;99.90
8928;DHT22;4499;48.304;11.902;2023-05-24T02:55:05;12.40;99.90
8928;DHT22;4499;48.304;11.902;2023-05-24T02:57:34;12.30;99.90
8928;DHT22;4499;48.304;11.902;2023-05-24T03:00:04;12.30;99.90
8928;DHT22;4499;48.304;11.902;2023-05-24T03:02:34;12.30;99.90
8928;DHT22;4499;48.304;11.902;2023-05-24T03:05:06;12.30;99.90
8928;DHT22;4499;48.304;11.902;2023-05-24T03:07:35;12.30;99.90
8928;DHT22;4499;48.304;11.902;2023-05-24T03:10:03;12.30;99.90
8928;DHT22;4499;48.304;11.902;2023-05-24T03:12:33;12.20;99.90
8928;DHT22;4499;48.304;11.902;2023-05-24T03:15:01;12.20;99.90
8928;DHT22;4499;48.304;11.902;2023-05-24T03:17:29;12.10;99.90
8928;DHT22;4499;48.304;11.902;2023-05-24T03:19:57;12.10;99.90
8928;DHT22;4499;48.304;11.902;2023-05-24T03:22:27;12.10;99.90
8928;DHT22;4499;48.304;11.902;2023-05-24T03:24:55;12.10;99.90
8928;DHT22;4499;48.304;11.902;2023-05-24T03:27:24;12.10;99.90
8928;DHT22;4499;48.304;11.902;2023-05-24T03:29:52;12.00;99.90
8928;DHT22;4499;48.304;11.902;2023-05-24T03:32:20;12.00;99.90
8928;DHT22;4499;48.304;11.902;2023-05-24T03:34:48;12.00;99.90
8928;DHT22;4499;48.304;11.902;2023-05-24T03:37:16;11.90;99.90
8928;DHT22;4499;48.304;11.902;2023-05-24T03:39:46;11.90;99.90
8928;DHT22;4499;48.304;11.902;2023-05-24T03:42:14;11.90;99.90
8928;DHT22;4499;48.304;11.902;2023-05-24T03:44:42;11.90;99.90
8928;DHT22;4499;48.304;11.902;2023-05-24T03:47:10;11.80;99.90
8928;DHT22;4499;48.304;11.902;2023-05-24T03:49:38;11.70;99.90
8928;DHT22;4499;48.304;11.902;2023-05-24T03:52:06;11.80;99.90
8928;DHT22;4499;48.304;11.902;2023-05-24T03:54:34;11.70;99.90
8928;DHT22;4499;48.304;11.902;2023-05-24T03:57:05;11.60;99.90
8928;DHT22;4499;48.304;11.902;2023-05-24T03:59:34;11.60;99.90
8928;DHT22;4499;48.304;11.902;2023-05-24T04:02:02;11.60;99.90
8928;DHT22;4499;48.304;11.902;2023-05-24T04:04:30;11.60;99.90
8928;DHT22;4499;48.304;11.902;2023-05-24T04:06:58;11.60;99.90
8928;DHT22;4499;48.304;11.902;2023-05-24T04:09:26;11.50;99.90
8928;DHT22;4499;48.304;11.902;2023-05-24T04:11:54;11.50;99.90
8928;DHT22;4499;48.304;11.902;2023-05-24T04:14:23;11.60;99.90
8928;DHT22;4499;48.304;11.902;2023-05-24T04:16:51;11.60;99.90
8928;DHT22;4499;48.304;11.902;2023-05-24T04:19:20;11.60;99.90
8928;DHT22;4499;48.304;11.902;2023-05-24T04:21:49;11.60;99.90
8928;DHT22;4499;48.304;11.902;2023-05-24T04:24:17;11.50;99.90
8928;DHT22;4499;48.304;11.902;2023-05-24T04:26:45;11.50;99.90
8928;DHT22;4499;48.304;11.902;2023-05-24T04:29:14;11.50;99.90
8928;DHT22;4499;48.304;11.902;2023-05-24T04:31:43;11.50;99.90
8928;DHT22;4499;48.304;11.902;2023-05-24T04:34:11;11.50;99.90
8928;DHT22;4499;48.304;11.902;2023-05-24T04:36:40;11.50;99.90
8928;DHT22;4499;48.304;11.902;2023-05-24T04:39:08;11.50;99.90
8928;DHT22;4499;48.304;11.902;2023-05-24T04:41:37;11.50;99.90
8928;DHT22;4499;48.304;11.902;2023-05-24T04:44:05;11.50;99.90
8928;DHT22;4499;48.304;11.902;2023-05-24T04:46:34;11.50;99.90
8928;DHT22;4499;48.304;11.902;2023-05-24T04:49:04;11.60;99.90
8928;DHT22;4499;48.304;11.902;2023-05-24T04:51:34;11.60;99.90
8928;DHT22;4499;48.304;11.902;2023-05-24T04:54:04;11.60;99.90
8928;DHT22;4499;48.304;11.902;2023-05-24T04:56:35;11.60;99.90
8928;DHT22;4499;48.304;11.902;2023-05-24T04:59:04;11.50;99.90
8928;DHT22;4499;48.304;11.902;2023-05-24T05:01:32;11.60;99.90
8928;DHT22;4499;48.304;11.902;2023-05-24T05:04:01;11.60;99.90
8928;DHT22;4499;48.304;11.902;2023-05-24T05:06:32;11.70;99.90
8928;DHT22;4499;48.304;11.902;2023-05-24T05:09:04;11.80;99.90
8928;DHT22;4499;48.304;11.902;2023-05-24T05:11:35;11.80;99.90
8928;DHT22;4499;48.304;11.902;2023-05-24T05:14:03;11.80;99.90
8928;DHT22;4499;48.304;11.902;2023-05-24T05:16:31;11.90;99.90
8928;DHT22;4499;48.304;11.902;2023-05-24T05:19:00;12.00;99.90
8928;DHT22;4499;48.304;11.902;2023-05-24T05:21:32;11.90;99.90
8928;DHT22;4499;48.304;11.902;2023-05-24T05:24:01;11.90;99.90
8928;DHT22;4499;48.304;11.902;2023-05-24T05:26:30;12.00;99.90
8928;DHT22;4499;48.304;11.902;2023-05-24T05:28:58;12.10;99.90
8928;DHT22;4499;48.304;11.902;2023-05-24T05:31:26;12.20;99.90
8928;DHT22;4499;48.304;11.902;2023-05-24T05:33:54;12.20;99.90
8928;DHT22;4499;48.304;11.902;2023-05-24T05:36:22;12.30;99.90
8928;DHT22;4499;48.304;11.902;2023-05-24T05:38:52;12.30;99.90
8928;DHT22;4499;48.304;11.902;2023-05-24T05:41:20;12.30;99.90
8928;DHT22;4499;48.304;11.902;2023-05-24T05:43:48;12.50;99.90
8928;DHT22;4499;48.304;11.902;2023-05-24T05:46:17;12.70;99.90
8928;DHT22;4499;48.304;11.902;2023-05-24T05:48:47;13.10;99.90
8928;DHT22;4499;48.304;11.902;2023-05-24T05:51:15;13.40;99.90
8928;DHT22;4499;48.304;11.902;2023-05-24T05:53:43;13.70;99.90
8928;DHT22;4499;48.304;11.902;2023-05-24T05:56:12;13.80;99.90
8928;DHT22;4499;48.304;11.902;2023-05-24T05:58:41;13.60;99.90
8928;DHT22;4499;48.304;11.902;2023-05-24T06:01:09;13.60;99.90
8928;DHT22;4499;48.304;11.902;2023-05-24T06:03:37;13.90;99.90
8928;DHT22;4499;48.304;11.902;2023-05-24T06:06:06;14.00;99.90
8928;DHT22;4499;48.304;11.902;2023-05-24T06:08:34;13.90;99.90
8928;DHT22;4499;48.304;11.902;2023-05-24T06:11:02;13.80;99.90
8928;DHT22;4499;48.304;11.902;2023-05-24T06:13:32;13.90;99.90
8928;DHT22;4499;48.304;11.902;2023-05-24T06:16:00;14.10;99.90
8928;DHT22;4499;48.304;11.902;2023-05-24T06:18:28;13.90;99.90
8928;DHT22;4499;48.304;11.902;2023-05-24T06:20:58;14.20;99.90
8928;DHT22;4499;48.304;11.902;2023-05-24T06:23:27;14.50;99.90
8928;DHT22;4499;48.304;11.902;2023-05-24T06:25:55;15.00;99.90
8928;DHT22;4499;48.304;11.902;2023-05-24T06:28:23;15.10;99.90
8928;DHT22;4499;48.304;11.902;2023-05-24T06:30:52;15.50;99.90
8928;DHT22;4499;48.304;11.902;2023-05-24T06:33:21;15.70;99.90
8928;DHT22;4499;48.304;11.902;2023-05-24T06:35:49;16.10;99.90
8928;DHT22;4499;48.304;11.902;2023-05-24T06:38:17;16.00;99.90
8928;DHT22;4499;48.304;11.902;2023-05-24T06:40:45;15.40;99.90
8928;DHT22;4499;48.304;11.902;2023-05-24T06:43:13;15.60;99.90
8928;DHT22;4499;48.304;11.902;2023-05-24T06:45:41;15.60;99.90
8928;DHT22;4499;48.304;11.902;2023-05-24T06:48:11;15.70;99.90
8928;DHT22;4499;48.304;11.902;2023-05-24T06:50:39;15.90;99.90
8928;DHT22;4499;48.304;11.902;2023-05-24T06:53:08;17.30;99.90
8928;DHT22;4499;48.304;11.902;2023-05-24T06:55:37;17.70;99.90
8928;DHT22;4499;48.304;11.902;2023-05-24T06:58:05;17.90;99.90
8928;DHT22;4499;48.304;11.902;2023-05-24T07:00:33;18.30;99.90
8928;DHT22;4499;48.304;11.902;2023-05-24T07:03:02;17.60;99.90
8928;DHT22;4499;48.304;11.902;2023-05-24T07:05:32;17.10;99.90
8928;DHT22;4499;48.304;11.902;2023-05-24T07:08:00;16.10;99.90
8928;DHT22;4499;48.304;11.902;2023-05-24T07:10:28;16.00;99.90
8928;DHT22;4499;48.304;11.902;2023-05-24T07:12:57;15.40;99.90
8928;DHT22;4499;48.304;11.902;2023-05-24T07:15:25;15.30;99.90
8928;DHT22;4499;48.304;11.902;2023-05-24T07:17:53;15.70;99.90
8928;DHT22;4499;48.304;11.902;2023-05-24T07:20:21;15.40;99.90
8928;DHT22;4499;48.304;11.902;2023-05-24T07:22:52;15.30;99.90
8928;DHT22;4499;48.304;11.902;2023-05-24T07:25:20;15.50;99.90
8928;DHT22;4499;48.304;11.902;2023-05-24T07:27:48;16.10;99.90
8928;DHT22;4499;48.304;11.902;2023-05-24T07:30:17;16.20;99.90
8928;DHT22;4499;48.304;11.902;2023-05-24T07:32:58;16.20;99.90
8928;DHT22;4499;48.304;11.902;2023-05-24T07:35:27;16.60;99.90
8928;DHT22;4499;48.304;11.902;2023-05-24T07:37:58;16.30;99.90
8928;DHT22;4499;48.304;11.902;2023-05-24T07:40:26;16.40;99.90
8928;DHT22;4499;48.304;11.902;2023-05-24T07:42:54;16.30;99.90
8928;DHT22;4499;48.304;11.902;2023-05-24T07:45:22;15.80;99.90
8928;DHT22;4499;48.304;11.902;2023-05-24T07:47:50;15.70;99.90
8928;DHT22;4499;48.304;11.902;2023-05-24T07:50:22;15.90;99.90
8928;DHT22;4499;48.304;11.902;2023-05-24T07:52:50;16.00;99.90
8928;DHT22;4499;48.304;11.902;2023-05-24T07:55:20;16.00;99.90
8928;DHT22;4499;48.304;11.902;2023-05-24T07:57:48;16.00;99.90
8928;DHT22;4499;48.304;11.902;2023-05-24T08:00:17;16.10;99.90
8928;DHT22;4499;48.304;11.902;2023-05-24T08:02:46;16.60;99.90
8928;DHT22;4499;48.304;11.902;2023-05-24T08:05:14;16.60;99.90
8928;DHT22;4499;48.304;11.902;2023-05-24T08:07:43;16.60;99.90
8928;DHT22;4499;48.304;11.902;2023-05-24T08:10:12;16.80;99.90
8928;DHT22;4499;48.304;11.902;2023-05-24T08:12:42;16.70;99.90
8928;DHT22;4499;48.304;11.902;2023-05-24T08:15:10;16.60;99.90
8928;DHT22;4499;48.304;11.902;2023-05-24T08:17:38;16.40;99.90
8928;DHT22;4499;48.304;11.902;2023-05-24T08:20:08;16.20;99.90
8928;DHT22;4499;48.304;11.902;2023-05-24T08:22:39;16.30;99.90
8928;DHT22;4499;48.304;11.902;2023-05-24T08:25:08;16.60;99.90
8928;DHT22;4499;48.304;11.902;2023-05-24T08:27:36;16.60;99.90
8928;DHT22;4499;48.304;11.902;2023-05-24T08:30:07;16.80;99.90
8928;DHT22;4499;48.304;11.902;2023-05-24T08:32:37;16.90;99.90
8928;DHT22;4499;48.304;11.902;2023-05-24T08:35:05;16.60;99.90
8928;DHT22;4499;48.304;11.902;2023-05-24T08:37:47;16.70;99.90
8928;DHT22;4499;48.304;11.902;2023-05-24T08:40:16;16.50;99.90
8928;DHT22;4499;48.304;11.902;2023-05-24T08:42:44;16.40;99.90
8928;DHT22;4499;48.304;11.902;2023-05-24T08:45:15;16.50;99.90
8928;DHT22;4499;48.304;11.902;2023-05-24T08:47:44;16.40;99.90
8928;DHT22;4499;48.304;11.902;2023-05-24T08:50:13;16.70;99.90
8928;DHT22;4499;48.304;11.902;2023-05-24T08:52:43;16.60;99.90
8928;DHT22;4499;48.304;11.902;2023-05-24T08:55:12;16.50;99.90
8928;DHT22;4499;48.304;11.902;2023-05-24T08:57:43;16.70;99.90
8928;DHT22;4499;48.304;11.902;2023-05-24T09:00:13;16.70;99.90
8928;DHT22;4499;48.304;11.902;2023-05-24T09:02:44;16.90;99.90
8928;DHT22;4499;48.304;11.902;2023-05-24T09:05:13;17.10;99.90
8928;DHT22;4499;48.304;11.902;2023-05-24T09:07:44;17.30;99.90
8928;DHT22;4499;48.304;11.902;2023-05-24T09:10:13;17.10;99.90
8928;DHT22;4499;48.304;11.902;2023-05-24T09:12:44;16.60;99.90
8928;DHT22;4499;48.304;11.902;2023-05-24T09:15:14;16.50;99.90
8928;DHT22;4499;48.304;11.902;2023-05-24T09:17:44;16.50;99.90
8928;DHT22;4499;48.304;11.902;2023-05-24T09:20:12;16.50;99.90
8928;DHT22;4499;48.304;11.902;2023-05-24T09:22:41;16.20;99.90
8928;DHT22;4499;48.304;11.902;2023-05-24T09:25:13;15.90;99.90
8928;DHT22;4499;48.304;11.902;2023-05-24T09:27:42;16.00;99.90
8928;DHT22;4499;48.304;11.902;2023-05-24T09:30:14;15.90;99.90
8928;DHT22;4499;48.304;11.902;2023-05-24T09:32:53;16.00;99.90
8928;DHT22;4499;48.304;11.902;2023-05-24T09:35:23;16.00;99.90
8928;DHT22;4499;48.304;11.902;2023-05-24T09:37:55;15.80;99.90
8928;DHT22;4499;48.304;11.902;2023-05-24T09:40:26;15.90;99.90
8928;DHT22;4499;48.304;11.902;2023-05-24T09:43:04;15.90;99.90
8928;DHT22;4499;48.304;11.902;2023-05-24T09:45:40;16.00;99.90
8928;DHT22;4499;48.304;11.902;2023-05-24T09:48:12;16.00;99.90
8928;DHT22;4499;48.304;11.902;2023-05-24T09:50:41;15.90;99.90
8928;DHT22;4499;48.304;11.902;2023-05-24T09:53:11;15.70;99.90
8928;DHT22;4499;48.304;11.902;2023-05-24T09:55:39;15.60;99.90
8928;DHT22;4499;48.304;11.902;2023-05-24T09:58:08;15.40;99.90
8928;DHT22;4499;48.304;11.902;2023-05-24T10:00:39;15.40;99.90
8928;DHT22;4499;48.304;11.902;2023-05-24T10:03:10;15.60;99.90
8928;DHT22;4499;48.304;11.902;2023-05-24T10:05:43;15.60;99.90
8928;DHT22;4499;48.304;11.902;2023-05-24T10:08:11;15.40;99.90
8928;DHT22;4499;48.304;11.902;2023-05-24T10:10:41;15.70;99.90
8928;DHT22;4499;48.304;11.902;2023-05-24T10:13:10;16.10;99.90
8928;DHT22;4499;48.304;11.902;2023-05-24T10:15:42;16.50;99.90
8928;DHT22;4499;48.304;11.902;2023-05-24T10:18:12;16.70;99.90
8928;DHT22;4499;48.304;11.902;2023-05-24T10:20:40;16.70;99.90
8928;DHT22;4499;48.304;11.902;2023-05-24T10:23:14;16.50;99.90
8928;DHT22;4499;48.304;11.902;2023-05-24T10:25:46;16.30;99.90
8928;DHT22;4499;48.304;11.902;2023-05-24T10:28:17;16.30;99.90
8928;DHT22;4499;48.304;11.902;2023-05-24T10:30:53;16.10;99.90
8928;DHT22;4499;48.304;11.902;2023-05-24T10:33:27;16.00;99.90
8928;DHT22;4499;48.304;11.902;2023-05-24T10:35:56;15.70;99.90
8928;DHT22;4499;48.304;11.902;2023-05-24T10:38:25;15.40;99.90
8928;DHT22;4499;48.304;11.902;2023-05-24T10:40:53;15.30;99.90
8928;DHT22;4499;48.304;11.902;2023-05-24T10:43:21;15.20;99.90
8928;DHT22;4499;48.304;11.902;2023-05-24T10:45:50;15.00;99.90
8928;DHT22;4499;48.304;11.902;2023-05-24T10:48:36;15.20;99.90
8928;DHT22;4499;48.304;11.902;2023-05-24T10:51:33;15.00;99.90
8928;DHT22;4499;48.304;11.902;2023-05-24T10:54:16;15.20;99.90
8928;DHT22;4499;48.304;11.902;2023-05-24T10:56:45;15.20;99.90
8928;DHT22;4499;48.304;11.902;2023-05-24T10:59:27;15.30;99.90
8928;DHT22;4499;48.304;11.902;2023-05-24T11:01:57;15.30;99.90
8928;DHT22;4499;48.304;11.902;2023-05-24T11:04:31;15.50;99.90
8928;DHT22;4499;48.304;11.902;2023-05-24T11:07:01;15.40;99.90
8928;DHT22;4499;48.304;11.902;2023-05-24T11:09:31;15.50;99.90
8928;DHT22;4499;48.304;11.902;2023-05-24T11:12:02;15.50;99.90
8928;DHT22;4499;48.304;11.902;2023-05-24T11:14:36;15.50;99.90
8928;DHT22;4499;48.304;11.902;2023-05-24T11:17:06;15.50;99.90
8928;DHT22;4499;48.304;11.902;2023-05-24T11:19:37;15.60;99.90
8928;DHT22;4499;48.304;11.902;2023-05-24T11:22:06;15.90;99.90
8928;DHT22;4499;48.304;11.902;2023-05-24T11:24:35;16.10;99.90
8928;DHT22;4499;48.304;11.902;2023-05-24T11:27:04;16.00;99.90
8928;DHT22;4499;48.304;11.902;2023-05-24T11:29:39;16.30;99.90
8928;DHT22;4499;48.304;11.902;2023-05-24T11:32:08;16.00;99.90
8928;DHT22;4499;48.304;11.902;2023-05-24T11:34:38;16.10;99.90
8928;DHT22;4499;48.304;11.902;2023-05-24T11:37:06;16.30;99.90
8928;DHT22;4499;48.304;11.902;2023-05-24T11:39:36;16.10;99.90
8928;DHT22;4499;48.304;11.902;2023-05-24T11:42:05;16.10;99.90
8928;DHT22;4499;48.304;11.902;2023-05-24T11:44:35;15.90;99.90
8928;DHT22;4499;48.304;11.902;2023-05-24T11:47:06;15.60;99.90
8928;DHT22;4499;48.304;11.902;2023-05-24T11:49:34;15.30;99.90
8928;DHT22;4499;48.304;11.902;2023-05-24T11:52:04;15.20;99.90
8928;DHT22;4499;48.304;11.902;2023-05-24T11:54:33;15.20;99.90
8928;DHT22;4499;48.304;11.902;2023-05-24T11:57:04;15.40;99.90
8928;DHT22;4499;48.304;11.902;2023-05-24T11:59:32;15.50;99.90
8928;DHT22;4499;48.304;11.902;2023-05-24T12:02:05;15.50;99.90
8928;DHT22;4499;48.304;11.902;2023-05-24T12:04:34;15.70;99.90
8928;DHT22;4499;48.304;11.902;2023-05-24T12:07:03;15.80;99.90
8928;DHT22;4499;48.304;11.902;2023-05-24T12:09:37;16.10;99.90
8928;DHT22;4499;48.304;11.902;2023-05-24T12:12:06;16.60;99.90
8928;DHT22;4499;48.304;11.902;2023-05-24T12:14:34;16.40;99.90
8928;DHT22;4499;48.304;11.902;2023-05-24T12:17:03;16.90;99.90
8928;DHT22;4499;48.304;11.902;2023-05-24T12:19:32;17.70;99.90
8928;DHT22;4499;48.304;11.902;2023-05-24T12:22:05;18.20;99.90
8928;DHT22;4499;48.304;11.902;2023-05-24T12:24:34;18.40;99.90
8928;DHT22;4499;48.304;11.902;2023-05-24T12:27:04;18.40;99.90
8928;DHT22;4499;48.304;11.902;2023-05-24T12:29:35;18.10;99.90
8928;DHT22;4499;48.304;11.902;2023-05-24T12:32:05;17.90;99.90
8928;DHT22;4499;48.304;11.902;2023-05-24T12:34:39;17.20;99.90
8928;DHT22;4499;48.304;11.902;2023-05-24T12:37:10;16.90;99.90
8928;DHT22;4499;48.304;11.902;2023-05-24T12:39:40;16.50;99.90
8928;DHT22;4499;48.304;11.902;2023-05-24T12:42:10;16.90;99.90
8928;DHT22;4499;48.304;11.902;2023-05-24T12:44:39;17.00;99.90
8928;DHT22;4499;48.304;11.902;2023-05-24T12:47:08;17.10;99.90
8928;DHT22;4499;48.304;11.902;2023-05-24T12:49:36;17.00;99.90
8928;DHT22;4499;48.304;11.902;2023-05-24T12:52:04;16.90;99.90
8928;DHT22;4499;48.304;11.902;2023-05-24T12:54:34;16.90;99.90
8928;DHT22;4499;48.304;11.902;2023-05-24T12:57:02;16.80;99.90
8928;DHT22;4499;48.304;11.902;2023-05-24T12:59:32;16.80;99.90
8928;DHT22;4499;48.304;11.902;2023-05-24T13:02:00;16.80;99.90
8928;DHT22;4499;48.304;11.902;2023-05-24T13:04:29;16.60;99.90
8928;DHT22;4499;48.304;11.902;2023-05-24T13:07:00;16.60;99.90
8928;DHT22;4499;48.304;11.902;2023-05-24T13:09:28;16.20;99.90
8928;DHT22;4499;48.304;11.902;2023-05-24T13:11:58;16.50;99.90
8928;DHT22;4499;48.304;11.902;2023-05-24T13:14:27;16.70;99.90
8928;DHT22;4499;48.304;11.902;2023-05-24T13:16:55;16.60;99.90
8928;DHT22;4499;48.304;11.902;2023-05-24T13:19:23;16.60;99.90
8928;DHT22;4499;48.304;11.902;2023-05-24T13:21:52;16.60;99.90
8928;DHT22;4499;48.304;11.902;2023-05-24T13:24:21;17.00;99.90
8928;DHT22;4499;48.304;11.902;2023-05-24T13:26:49;17.20;99.90
8928;DHT22;4499;48.304;11.902;2023-05-24T13:29:22;16.90;99.90
8928;DHT22;4499;48.304;11.902;2023-05-24T13:31:53;17.30;99.90
8928;DHT22;4499;48.304;11.902;2023-05-24T13:34:22;17.40;99.90
8928;DHT22;4499;48.304;11.902;2023-05-24T13:36:52;17.90;99.90
8928;DHT22;4499;48.304;11.902;2023-05-24T13:39:21;17.70;99.30
8928;DHT22;4499;48.304;11.902;2023-05-24T13:41:50;17.60;99.20
8928;DHT22;4499;48.304;11.902;2023-05-24T13:44:18;17.30;98.90
8928;DHT22;4499;48.304;11.902;2023-05-24T13:46:48;17.10;98.20
8928;DHT22;4499;48.304;11.902;2023-05-24T13:49:16;17.30;99.90
8928;DHT22;4499;48.304;11.902;2023-05-24T13:51:44;17.30;97.90
8928;DHT22;4499;48.304;11.902;2023-05-24T13:54:13;17.60;98.90
8928;DHT22;4499;48.304;11.902;2023-05-24T13:56:42;17.30;99.20
8928;DHT22;4499;48.304;11.902;2023-05-24T13:59:10;16.80;97.90
8928;DHT22;4499;48.304;11.902;2023-05-24T14:01:39;16.90;99.90
8928;DHT22;4499;48.304;11.902;2023-05-24T14:04:08;16.90;99.90
8928;DHT22;4499;48.304;11.902;2023-05-24T14:06:37;16.70;99.90
8928;DHT22;4499;48.304;11.902;2023-05-24T14:09:05;16.30;99.90
8928;DHT22;4499;48.304;11.902;2023-05-24T14:11:34;16.40;99.90
8928;DHT22;4499;48.304;11.902;2023-05-24T14:14:02;16.50;99.90
8928;DHT22;4499;48.304;11.902;2023-05-24T14:16:34;16.50;99.90
8928;DHT22;4499;48.304;11.902;2023-05-24T14:19:03;16.40;99.30
8928;DHT22;4499;48.304;11.902;2023-05-24T14:21:32;16.30;99.90
8928;DHT22;4499;48.304;11.902;2023-05-24T14:24:02;16.20;99.90
8928;DHT22;4499;48.304;11.902;2023-05-24T14:26:30;16.00;99.90
8928;DHT22;4499;48.304;11.902;2023-05-24T14:28:58;15.80;99.90
8928;DHT22;4499;48.304;11.902;2023-05-24T14:31:27;15.90;99.90
8928;DHT22;4499;48.304;11.902;2023-05-24T14:33:55;15.90;99.90
8928;DHT22;4499;48.304;11.902;2023-05-24T14:36:23;15.70;99.90
8928;DHT22;4499;48.304;11.902;2023-05-24T14:38:53;15.80;99.90
8928;DHT22;4499;48.304;11.902;2023-05-24T14:41:21;15.90;99.90
8928;DHT22;4499;48.304;11.902;2023-05-24T14:43:49;15.90;99.90
8928;DHT22;4499;48.304;11.902;2023-05-24T14:46:17;16.10;99.90
8928;DHT22;4499;48.304;11.902;2023-05-24T14:48:46;16.60;99.90
8928;DHT22;4499;48.304;11.902;2023-05-24T14:51:14;16.90;99.80
8928;DHT22;4499;48.304;11.902;2023-05-24T14:53:42;16.70;99.40
8928;DHT22;4499;48.304;11.902;2023-05-24T14:56:12;17.20;99.10
8928;DHT22;4499;48.304;11.902;2023-05-24T14:58:40;17.50;95.00
8928;DHT22;4499;48.304;11.902;2023-05-24T15:01:09;17.40;94.80
8928;DHT22;4499;48.304;11.902;2023-05-24T15:03:37;17.30;96.20
8928;DHT22;4499;48.304;11.902;2023-05-24T15:06:05;17.50;96.10
8928;DHT22;4499;48.304;11.902;2023-05-24T15:08:34;17.70;96.50
8928;DHT22;4499;48.304;11.902;2023-05-24T15:11:02;17.70;95.70
8928;DHT22;4499;48.304;11.902;2023-05-24T15:13:33;17.90;96.60
8928;DHT22;4499;48.304;11.902;2023-05-24T15:16:01;18.10;96.00
8928;DHT22;4499;48.304;11.902;2023-05-24T15:18:29;18.20;95.40
8928;DHT22;4499;48.304;11.902;2023-05-24T15:20:58;18.00;94.70
8928;DHT22;4499;48.304;11.902;2023-05-24T15:23:26;18.10;95.60
8928;DHT22;4499;48.304;11.902;2023-05-24T15:25:54;17.50;95.00
8928;DHT22;4499;48.304;11.902;2023-05-24T15:28:23;17.50;96.90
8928;DHT22;4499;48.304;11.902;2023-05-24T15:30:54;17.60;95.80
8928;DHT22;4499;48.304;11.902;2023-05-24T15:33:22;17.20;95.90
8928;DHT22;4499;48.304;11.902;2023-05-24T15:35:52;17.70;98.10
8928;DHT22;4499;48.304;11.902;2023-05-24T15:38:20;17.70;95.10
8928;DHT22;4499;48.304;11.902;2023-05-24T15:40:49;17.50;94.40
8928;DHT22;4499;48.304;11.902;2023-05-24T15:43:18;17.60;94.90
8928;DHT22;4499;48.304;11.902;2023-05-24T15:45:46;17.50;94.80
8928;DHT22;4499;48.304;11.902;2023-05-24T15:48:16;17.50;95.30
8928;DHT22;4499;48.304;11.902;2023-05-24T15:50:44;17.60;96.00
8928;DHT22;4499;48.304;11.902;2023-05-24T15:53:15;17.80;94.70
8928;DHT22;4499;48.304;11.902;2023-05-24T15:55:53;17.60;96.70
8928;DHT22;4499;48.304;11.902;2023-05-24T15:58:24;17.70;95.30
8928;DHT22;4499;48.304;11.902;2023-05-24T16:00:52;17.60;94.80